Koeimaru — JD3362 — position and weather

sailwx.info

Track history (hours):
 
Tides and Currents Weather Stations Pressure Air Temp Water Temp Dewpoint Dewpoint Depression Visibility Wind Speed Wind Dir Waves Ship Positions

Koeimaru

Last reported at 2018-Jun-20 09:00 UTC. Time now 2018-Jun-20 09:10 UTC.
Position N 34°43' E 134°47'.

Length 64 m; draft 4 m.

Type: Cargo ship. MMSI: 431003512.

Date/timePositionNaut miles runAvg speedWind from/ knotsBaromVisibWave heightAir tempDewpointWater temp
2018-Jun-20 09:00N 34°43' E 134°47'0 0.0
2018-Jun-20 08:30N 34°43' E 134°47'3 0.4
2018-Jun-20 02:09N 34°42' E 134°50'0 0.0
2018-Jun-20 01:53N 34°42' E 134°50'0 0.0
2018-Jun-20 01:28N 34°42' E 134°50'0 0.0
2018-Jun-20 00:35N 34°42' E 134°50'0 0.0
2018-Jun-19 22:36N 34°42' E 134°50'0 0.0
2018-Jun-19 21:50N 34°42' E 134°50'0 0.0
2018-Jun-19 21:25N 34°42' E 134°50'3 0.2
2018-Jun-19 04:33N 34°40' E 134°51'0 9.8
2018-Jun-19 04:30N 34°39' E 134°51'611.0
2018-Jun-19 03:57N 34°38' E 134°58'612.5
2018-Jun-19 03:29N 34°36' E 135°05'611.5
2018-Jun-19 03:00N 34°37' E 135°12'611.5
2018-Jun-19 02:30N 34°38' E 135°19'510.0
2018-Jun-19 02:00N 34°37' E 135°25'0 0.2
2018-Jun-19 01:30N 34°38' E 135°25'0 0.0
2018-Jun-19 00:59N 34°38' E 135°25'0 0.0
2018-Jun-19 00:30N 34°38' E 135°25'0 0.0
2018-Jun-18 23:59N 34°38' E 135°25'0 0.0
2018-Jun-18 23:26N 34°38' E 135°25'0 0.0
2018-Jun-18 22:57N 34°38' E 135°25'1 3.0
2018-Jun-18 22:30N 34°37' E 135°23'3 6.9
2018-Jun-18 22:00N 34°34' E 135°23'2 0.1
2018-Jun-18 01:47N 34°32' E 135°24'310.0
2018-Jun-18 01:28N 34°33' E 135°20'510.2
2018-Jun-18 01:01N 34°34' E 135°15'510.3
2018-Jun-18 00:30N 34°34' E 135°09'610.9
2018-Jun-17 23:59N 34°36' E 135°02'610.2
2018-Jun-17 23:24N 34°36' E 134°55'  
2018-Jun-14 11:43N 34°18' E 134°32'2611.5
2018-Jun-14 09:27N 34°01' E 134°55'510.9
2018-Jun-14 08:57N 33°56' E 134°59'246 9.2
2018-Jun-13 06:11N 35°10' E 139°44'410.1
2018-Jun-13 05:45N 35°14' E 139°46'3 9.4
2018-Jun-13 05:29N 35°17' E 139°45'510.3
2018-Jun-13 05:00N 35°21' E 139°42'5 9.6
2018-Jun-13 04:29N 35°26' E 139°44'610.7
2018-Jun-13 03:57N 35°29' E 139°50'11 0.3
2018-Jun-11 08:19N 35°38' E 139°58'  
Track history (hours):
 
Tides and Currents Weather Stations Pressure Air Temp Water Temp Dewpoint Dewpoint Depression Visibility Wind Speed Wind Dir Waves Ship Positions

Koeimaru

Last reported at 2018-Jun-20 09:00 UTC. Time now 2018-Jun-20 09:10 UTC.
Position N 34°43' E 134°47'.

Length 64 m; draft 4 m.

Type: Cargo ship. MMSI: 431003512.

Date/timePositionNaut miles runAvg speedWind from/ knotsBaromVisibWave heightAir tempDewpointWater temp
2018-Jun-20 09:00N 34°43' E 134°47'0 0.0
2018-Jun-20 08:30N 34°43' E 134°47'3 0.4
2018-Jun-20 02:09N 34°42' E 134°50'0 0.0
2018-Jun-20 01:53N 34°42' E 134°50'0 0.0
2018-Jun-20 01:28N 34°42' E 134°50'0 0.0
2018-Jun-20 00:35N 34°42' E 134°50'0 0.0
2018-Jun-19 22:36N 34°42' E 134°50'0 0.0
2018-Jun-19 21:50N 34°42' E 134°50'0 0.0
2018-Jun-19 21:25N 34°42' E 134°50'3 0.2
2018-Jun-19 04:33N 34°40' E 134°51'0 9.8
2018-Jun-19 04:30N 34°39' E 134°51'611.0
2018-Jun-19 03:57N 34°38' E 134°58'612.5
2018-Jun-19 03:29N 34°36' E 135°05'611.5
2018-Jun-19 03:00N 34°37' E 135°12'611.5
2018-Jun-19 02:30N 34°38' E 135°19'510.0
2018-Jun-19 02:00N 34°37' E 135°25'0 0.2
2018-Jun-19 01:30N 34°38' E 135°25'0 0.0
2018-Jun-19 00:59N 34°38' E 135°25'0 0.0
2018-Jun-19 00:30N 34°38' E 135°25'0 0.0
2018-Jun-18 23:59N 34°38' E 135°25'0 0.0
2018-Jun-18 23:26N 34°38' E 135°25'0 0.0
2018-Jun-18 22:57N 34°38' E 135°25'1 3.0
2018-Jun-18 22:30N 34°37' E 135°23'3 6.9
2018-Jun-18 22:00N 34°34' E 135°23'2 0.1
2018-Jun-18 01:47N 34°32' E 135°24'310.0
2018-Jun-18 01:28N 34°33' E 135°20'510.2
2018-Jun-18 01:01N 34°34' E 135°15'510.3
2018-Jun-18 00:30N 34°34' E 135°09'610.9
2018-Jun-17 23:59N 34°36' E 135°02'610.2
2018-Jun-17 23:24N 34°36' E 134°55'  
2018-Jun-14 11:43N 34°18' E 134°32'2611.5
2018-Jun-14 09:27N 34°01' E 134°55'510.9
2018-Jun-14 08:57N 33°56' E 134°59'246 9.2
2018-Jun-13 06:11N 35°10' E 139°44'410.1
2018-Jun-13 05:45N 35°14' E 139°46'3 9.4
2018-Jun-13 05:29N 35°17' E 139°45'510.3
2018-Jun-13 05:00N 35°21' E 139°42'5 9.6
2018-Jun-13 04:29N 35°26' E 139°44'610.7
2018-Jun-13 03:57N 35°29' E 139°50'11 0.3
2018-Jun-11 08:19N 35°38' E 139°58'  

Dump ship's entire track history